createdAt,value
2018-09-04T00:01:51.016Z,13.50
2018-09-04T00:04:18.161Z,13.40
2018-09-04T00:06:45.426Z,13.40
2018-09-04T00:09:12.610Z,13.30
2018-09-04T00:11:39.795Z,13.30
2018-09-04T00:14:08.015Z,13.30
2018-09-04T00:16:35.355Z,13.30
2018-09-04T00:19:02.469Z,13.20
2018-09-04T00:21:29.818Z,13.30
2018-09-04T00:23:56.943Z,13.30
2018-09-04T00:26:24.073Z,13.30
2018-09-04T00:28:51.717Z,13.30
2018-09-04T00:31:18.835Z,13.30
2018-09-04T00:33:45.942Z,13.20
2018-09-04T00:36:13.475Z,13.10
2018-09-04T00:38:40.730Z,13.10
2018-09-04T00:41:07.825Z,13.10
2018-09-04T00:43:35.419Z,13.10
2018-09-04T00:46:02.530Z,13.00
2018-09-04T00:48:29.638Z,13.00
2018-09-04T00:50:57.303Z,13.00
2018-09-04T00:53:24.430Z,13.00
2018-09-04T00:55:51.535Z,13.00
2018-09-04T00:58:19.379Z,13.10
2018-09-04T01:00:46.486Z,13.10
2018-09-04T01:03:13.683Z,13.10
2018-09-04T01:05:40.978Z,13.10
2018-09-04T01:08:08.114Z,13.10
2018-09-04T01:10:35.240Z,13.10
2018-09-04T01:13:02.574Z,13.10
2018-09-04T01:15:29.679Z,13.10
2018-09-04T01:17:56.842Z,13.20
2018-09-04T01:20:23.987Z,13.20
2018-09-04T01:22:51.118Z,13.10
2018-09-04T01:25:18.474Z,13.10
2018-09-04T01:27:45.565Z,13.10
2018-09-04T01:30:12.695Z,13.10
2018-09-04T01:32:40.231Z,13.10
2018-09-04T01:35:07.357Z,13.10
2018-09-04T01:37:34.467Z,13.10
2018-09-04T01:40:01.863Z,13.00
2018-09-04T01:42:28.962Z,12.90
2018-09-04T01:44:56.247Z,12.80
2018-09-04T01:47:23.697Z,12.80
2018-09-04T01:49:50.805Z,12.70
2018-09-04T01:52:18.113Z,12.80
2018-09-04T01:54:45.713Z,12.80
2018-09-04T01:57:12.836Z,12.80
2018-09-04T01:59:39.980Z,12.80
2018-09-04T02:02:07.522Z,12.80
2018-09-04T02:04:34.873Z,12.80
2018-09-04T02:07:02.184Z,12.80
2018-09-04T02:09:29.442Z,12.80
2018-09-04T02:11:56.829Z,12.90
2018-09-04T02:14:24.157Z,12.90
2018-09-04T02:16:51.649Z,12.90
2018-09-04T02:19:19.109Z,12.90
2018-09-04T02:21:46.234Z,12.90
2018-09-04T02:24:13.509Z,12.90
2018-09-04T02:26:40.610Z,12.90
2018-09-04T02:29:07.801Z,12.90
2018-09-04T02:31:34.929Z,12.90
2018-09-04T02:34:02.312Z,12.90
2018-09-04T02:36:29.801Z,12.90
2018-09-04T02:38:56.897Z,13.00
2018-09-04T02:41:24.633Z,13.00
2018-09-04T02:43:51.990Z,12.90
2018-09-04T02:46:19.106Z,12.90
2018-09-04T02:48:46.342Z,12.80
2018-09-04T02:51:13.866Z,12.80
2018-09-04T02:53:41.050Z,12.80
2018-09-04T02:56:08.153Z,12.80
2018-09-04T02:58:35.713Z,12.80
2018-09-04T03:01:02.882Z,12.70
2018-09-04T03:03:30.007Z,12.80
2018-09-04T03:05:57.417Z,12.70
2018-09-04T03:08:24.518Z,12.70
2018-09-04T03:10:51.641Z,12.60
2018-09-04T03:13:19.521Z,12.60
2018-09-04T03:15:46.616Z,12.60
2018-09-04T03:18:13.746Z,12.60
2018-09-04T03:20:40.917Z,12.70
2018-09-04T03:23:08.186Z,12.80
2018-09-04T03:25:35.465Z,12.80
2018-09-04T03:28:02.721Z,12.80
2018-09-04T03:30:29.833Z,12.80
2018-09-04T03:32:57.190Z,12.70
2018-09-04T03:35:24.322Z,12.60
2018-09-04T03:37:51.421Z,12.60
2018-09-04T03:40:18.878Z,12.50
2018-09-04T03:42:46.034Z,12.60
2018-09-04T03:45:13.166Z,12.60
2018-09-04T03:47:40.451Z,12.50
2018-09-04T03:50:08.049Z,12.60
2018-09-04T03:52:35.309Z,12.70
2018-09-04T03:55:02.596Z,12.70
2018-09-04T03:57:29.785Z,12.80
2018-09-04T03:59:56.892Z,12.80
2018-09-04T04:02:24.432Z,12.70
2018-09-04T04:04:51.529Z,12.80
2018-09-04T04:07:18.629Z,12.80
2018-09-04T04:09:45.900Z,13.00
2018-09-04T04:12:13.004Z,13.10
2018-09-04T04:14:40.112Z,13.20
2018-09-04T04:17:07.465Z,13.30
2018-09-04T04:19:34.561Z,13.40
2018-09-04T04:22:01.778Z,13.40
2018-09-04T04:24:28.899Z,13.40
2018-09-04T04:26:56.006Z,13.40
2018-09-04T04:29:23.648Z,13.40
2018-09-04T04:31:50.770Z,13.30
2018-09-04T04:34:17.865Z,13.20
2018-09-04T04:36:45.245Z,13.20
2018-09-04T04:39:12.366Z,13.10
2018-09-04T04:41:39.473Z,13.10
2018-09-04T04:44:06.985Z,13.00
2018-09-04T04:46:34.964Z,13.00
2018-09-04T04:49:02.055Z,13.00
2018-09-04T04:51:29.749Z,12.90
2018-09-04T04:53:56.891Z,12.90
2018-09-04T04:56:23.985Z,12.80
2018-09-04T04:58:51.339Z,12.80
2018-09-04T05:01:18.466Z,12.70
2018-09-04T05:03:45.561Z,12.70
2018-09-04T05:06:12.929Z,12.70
2018-09-04T05:08:40.041Z,12.70
2018-09-04T05:11:07.282Z,12.70
2018-09-04T05:13:34.545Z,12.70
2018-09-04T05:16:01.654Z,12.70
2018-09-04T05:18:28.937Z,12.80
2018-09-04T05:20:56.086Z,12.80
2018-09-04T05:23:23.214Z,12.90
2018-09-04T05:25:50.525Z,13.00
2018-09-04T05:28:17.626Z,13.10
2018-09-04T05:30:44.720Z,13.20
2018-09-04T05:33:27.662Z,13.40
2018-09-04T05:35:56.220Z,13.40
2018-09-04T05:38:23.770Z,13.60
2018-09-04T05:40:50.873Z,13.70
2018-09-04T05:43:32.129Z,13.70
2018-09-04T05:46:01.726Z,13.80
2018-09-04T05:48:28.866Z,13.80
2018-09-04T05:50:56.205Z,13.90
2018-09-04T05:53:23.353Z,13.90
2018-09-04T05:55:50.710Z,13.90
2018-09-04T05:58:18.165Z,14.00
2018-09-04T06:00:48.285Z,14.10
2018-09-04T06:03:15.400Z,14.30
2018-09-04T06:05:42.720Z,14.40
2018-09-04T06:08:09.833Z,14.50
2018-09-04T06:10:36.945Z,14.60
2018-09-04T06:13:04.642Z,14.60
2018-09-04T06:15:31.765Z,14.70
2018-09-04T06:17:58.877Z,14.80
2018-09-04T06:20:26.258Z,14.90
2018-09-04T06:22:53.358Z,15.00
2018-09-04T06:25:20.457Z,15.00
2018-09-04T06:27:48.022Z,15.10
2018-09-04T06:30:15.269Z,15.10
2018-09-04T06:32:42.365Z,15.10
2018-09-04T06:35:09.978Z,15.10
2018-09-04T06:37:37.065Z,15.10
2018-09-04T06:40:04.194Z,15.20
2018-09-04T06:42:31.496Z,15.30
2018-09-04T06:44:58.601Z,15.30
2018-09-04T06:47:25.901Z,15.40
2018-09-04T06:49:53.341Z,15.50
2018-09-04T06:52:20.468Z,15.70
2018-09-04T06:54:47.795Z,15.90
2018-09-04T06:57:14.911Z,16.00
2018-09-04T06:59:42.153Z,16.20
2018-09-04T07:02:09.246Z,16.20
2018-09-04T07:04:36.354Z,16.30
2018-09-04T07:07:03.460Z,16.30
2018-09-04T07:09:31.138Z,16.30
2018-09-04T07:11:58.253Z,16.30
2018-09-04T07:14:25.365Z,16.50
2018-09-04T07:16:52.852Z,16.60
2018-09-04T07:19:20.182Z,16.60
2018-09-04T07:21:47.365Z,16.70
2018-09-04T07:24:15.406Z,16.80
2018-09-04T07:26:43.033Z,16.90
2018-09-04T07:29:10.391Z,17.10
2018-09-04T07:31:38.089Z,17.20
2018-09-04T07:34:05.202Z,17.40
2018-09-04T07:36:32.436Z,17.70
2018-09-04T07:39:00.016Z,18.00
2018-09-04T07:41:27.133Z,18.60
2018-09-04T07:43:54.245Z,19.00
2018-09-04T07:46:21.705Z,19.20
2018-09-04T07:48:48.807Z,20.00
2018-09-04T07:51:15.926Z,21.00
2018-09-04T07:53:43.254Z,21.30
2018-09-04T07:56:10.357Z,21.20
2018-09-04T07:58:37.520Z,20.90
2018-09-04T08:01:04.966Z,20.40
2018-09-04T08:03:32.024Z,20.20
2018-09-04T08:05:59.263Z,20.40
2018-09-04T08:08:26.377Z,20.70
2018-09-04T08:10:53.517Z,21.20
2018-09-04T08:13:20.874Z,21.30
2018-09-04T08:15:47.997Z,21.50
2018-09-04T08:18:15.147Z,22.10
2018-09-04T08:20:42.729Z,22.10
2018-09-04T08:23:09.822Z,22.80
2018-09-04T08:25:36.925Z,22.50
2018-09-04T08:28:04.210Z,22.20
2018-09-04T08:30:31.306Z,22.10
2018-09-04T08:32:58.500Z,22.60
2018-09-04T08:35:25.613Z,24.10
2018-09-04T08:37:57.330Z,24.70
2018-09-04T08:40:24.429Z,25.40
2018-09-04T08:42:51.644Z,26.70
2018-09-04T08:45:18.976Z,26.70
2018-09-04T08:47:46.142Z,26.90
2018-09-04T08:50:13.233Z,26.40
2018-09-04T08:52:40.470Z,25.90
2018-09-04T08:55:07.590Z,25.20
2018-09-04T08:57:34.803Z,24.20
2018-09-04T09:00:01.921Z,23.60
2018-09-04T09:02:29.026Z,23.20
2018-09-04T09:04:56.449Z,22.70
2018-09-04T09:07:23.551Z,22.00
2018-09-04T09:09:50.658Z,21.70
2018-09-04T09:12:18.274Z,21.70
2018-09-04T09:14:45.380Z,21.60
2018-09-04T09:17:12.496Z,21.80
2018-09-04T09:19:40.245Z,22.30
2018-09-04T09:22:07.365Z,22.30
2018-09-04T09:24:34.471Z,21.90
2018-09-04T09:27:02.017Z,21.70
2018-09-04T09:29:29.322Z,22.10
2018-09-04T09:31:56.453Z,23.50
2018-09-04T09:34:23.812Z,25.70
2018-09-04T09:36:50.966Z,26.00
2018-09-04T09:39:18.036Z,24.70
2018-09-04T09:41:45.354Z,23.80
2018-09-04T09:44:12.448Z,23.60
2018-09-04T09:46:39.779Z,24.40
2018-09-04T09:49:07.055Z,24.70
2018-09-04T09:51:34.177Z,25.00
2018-09-04T09:54:01.635Z,25.00
2018-09-04T09:56:28.918Z,24.50
2018-09-04T09:58:56.033Z,23.90
2018-09-04T10:01:29.285Z,23.10
2018-09-04T10:03:57.349Z,23.00
2018-09-04T10:06:24.741Z,22.90
2018-09-04T10:08:51.873Z,22.50
2018-09-04T10:11:19.259Z,22.20
2018-09-04T10:13:47.359Z,21.90
2018-09-04T10:16:14.501Z,21.90
2018-09-04T10:18:41.596Z,21.80
2018-09-04T10:21:09.009Z,22.10
2018-09-04T10:23:36.078Z,22.30
2018-09-04T10:26:03.225Z,22.60
2018-09-04T10:28:30.600Z,23.10
2018-09-04T10:30:57.697Z,23.50
2018-09-04T10:33:24.792Z,23.80
2018-09-04T10:35:52.445Z,24.00
2018-09-04T10:38:23.289Z,23.80
2018-09-04T10:40:51.814Z,23.80
2018-09-04T10:43:18.940Z,23.10
2018-09-04T10:45:51.949Z,23.10
2018-09-04T10:48:24.641Z,23.20
2018-09-04T10:50:51.965Z,22.90
2018-09-04T10:53:19.380Z,22.90
2018-09-04T10:55:46.919Z,22.80
2018-09-04T10:58:13.956Z,22.60
2018-09-04T11:00:41.158Z,22.40
2018-09-04T11:03:08.305Z,22.40
2018-09-04T11:05:35.453Z,22.90
2018-09-04T11:08:03.066Z,23.20
2018-09-04T11:10:30.222Z,23.50
2018-09-04T11:12:57.373Z,23.50
2018-09-04T11:15:24.681Z,23.40
2018-09-04T11:17:51.789Z,23.40
2018-09-04T11:20:18.902Z,23.40
2018-09-04T11:22:46.425Z,23.80
2018-09-04T11:25:13.535Z,24.10
2018-09-04T11:27:40.633Z,24.30
2018-09-04T11:30:09.672Z,24.20
2018-09-04T11:32:36.801Z,24.30
2018-09-04T11:35:04.006Z,24.20
2018-09-04T11:37:31.693Z,23.90
2018-09-04T11:39:58.806Z,23.70
2018-09-04T11:42:25.929Z,23.60
2018-09-04T11:44:53.234Z,23.70
2018-09-04T11:47:20.421Z,23.80
2018-09-04T11:49:47.522Z,24.00
2018-09-04T11:52:14.834Z,24.10
2018-09-04T11:54:41.957Z,23.80
2018-09-04T11:57:09.254Z,23.90
2018-09-04T11:59:37.609Z,23.80
2018-09-04T12:02:05.022Z,23.60
2018-09-04T12:04:32.077Z,23.50
2018-09-04T12:06:59.462Z,23.00
2018-09-04T12:09:26.581Z,23.00
2018-09-04T12:11:54.669Z,23.90
2018-09-04T12:14:22.238Z,24.70
2018-09-04T12:16:49.450Z,26.10
2018-09-04T12:19:16.730Z,26.90
2018-09-04T12:21:44.090Z,26.90
2018-09-04T12:24:11.200Z,27.10
2018-09-04T12:26:38.300Z,27.40
2018-09-04T12:29:06.283Z,27.80
2018-09-04T12:31:33.425Z,28.00
2018-09-04T12:34:00.880Z,28.00
2018-09-04T12:36:28.341Z,28.20
2018-09-04T12:38:55.481Z,29.00
2018-09-04T12:41:22.619Z,29.50
2018-09-04T12:43:49.881Z,29.70
2018-09-04T12:46:17.233Z,29.10
2018-09-04T12:48:50.351Z,28.30
2018-09-04T12:51:17.545Z,28.10
2018-09-04T12:53:45.100Z,27.90
2018-09-04T12:56:12.205Z,27.90
2018-09-04T12:58:39.337Z,28.70
2018-09-04T13:01:06.697Z,28.70
2018-09-04T13:03:33.945Z,28.80
2018-09-04T13:06:01.068Z,28.80
2018-09-04T13:08:31.209Z,28.90
2018-09-04T13:10:58.736Z,28.30
2018-09-04T13:13:26.022Z,28.40
2018-09-04T13:15:54.713Z,28.30
2018-09-04T13:18:22.397Z,28.50
2018-09-04T13:20:49.536Z,28.80
2018-09-04T13:23:16.649Z,28.70
2018-09-04T13:25:44.029Z,28.40
2018-09-04T13:28:11.145Z,27.40
2018-09-04T13:30:38.621Z,26.90
2018-09-04T13:33:05.797Z,26.70
2018-09-04T13:35:33.110Z,27.00
2018-09-04T13:38:00.213Z,27.50
2018-09-04T13:40:27.785Z,27.40
2018-09-04T13:42:54.929Z,27.50
2018-09-04T13:45:22.253Z,27.70
2018-09-04T13:47:49.580Z,27.50
2018-09-04T13:50:16.694Z,27.50
2018-09-04T13:52:43.829Z,27.30
2018-09-04T13:55:11.054Z,27.20
2018-09-04T13:57:38.158Z,27.30
2018-09-04T14:00:05.935Z,27.30
2018-09-04T14:02:33.073Z,26.70
2018-09-04T14:05:00.170Z,26.10
2018-09-04T14:07:27.609Z,25.60
2018-09-04T14:09:54.698Z,25.10
2018-09-04T14:12:22.029Z,24.70
2018-09-04T14:14:49.352Z,24.50
2018-09-04T14:17:18.186Z,24.20
2018-09-04T14:19:45.295Z,24.00
2018-09-04T14:22:12.853Z,23.70
2018-09-04T14:24:40.062Z,23.50
2018-09-04T14:27:07.420Z,23.60
2018-09-04T14:32:02.278Z,25.00
2018-09-04T14:34:29.365Z,26.00
2018-09-04T14:36:56.718Z,26.80
2018-09-04T14:39:23.701Z,27.50
2018-09-04T14:41:50.797Z,27.70
2018-09-04T14:44:17.954Z,27.90
2018-09-04T14:46:45.513Z,27.70
2018-09-04T14:49:12.669Z,27.90
2018-09-04T14:51:40.084Z,27.90
2018-09-04T14:54:07.189Z,28.20
2018-09-04T14:56:34.307Z,28.00
2018-09-04T14:59:01.757Z,27.70
2018-09-04T15:01:28.877Z,27.90
2018-09-04T15:03:55.964Z,27.80
2018-09-04T15:06:23.539Z,28.00
2018-09-04T15:08:50.621Z,28.50
2018-09-04T15:11:17.720Z,28.80
2018-09-04T15:13:45.005Z,28.60
2018-09-04T15:16:12.107Z,28.40
2018-09-04T15:18:39.488Z,28.60
2018-09-04T15:21:06.680Z,28.20
2018-09-04T15:23:33.802Z,28.00
2018-09-04T15:26:01.141Z,28.10
2018-09-04T15:28:28.238Z,28.00
2018-09-04T15:30:55.329Z,27.60
2018-09-04T15:33:22.641Z,27.10
2018-09-04T15:35:49.744Z,26.40
2018-09-04T15:38:16.870Z,25.70
2018-09-04T15:40:44.681Z,25.10
2018-09-04T15:43:11.874Z,24.80
2018-09-04T15:45:38.964Z,24.40
2018-09-04T15:48:06.343Z,24.10
2018-09-04T15:50:33.445Z,23.80
2018-09-04T15:53:00.545Z,23.80
2018-09-04T15:55:27.937Z,23.70
2018-09-04T15:57:55.045Z,23.60
2018-09-04T16:00:22.156Z,23.50
2018-09-04T16:02:49.393Z,23.40
2018-09-04T16:05:16.485Z,23.20
2018-09-04T16:07:43.606Z,23.00
2018-09-04T16:10:10.866Z,23.00
2018-09-04T16:12:37.817Z,23.10
2018-09-04T16:15:05.273Z,23.00
2018-09-04T16:17:32.421Z,22.90
2018-09-04T16:19:59.737Z,22.70
2018-09-04T16:22:27.853Z,22.60
2018-09-04T16:24:54.973Z,22.40
2018-09-04T16:27:22.086Z,22.40
2018-09-04T16:29:49.572Z,22.30
2018-09-04T16:32:16.673Z,22.30
2018-09-04T16:34:43.864Z,22.30
2018-09-04T16:37:11.437Z,22.30
2018-09-04T16:39:38.549Z,22.30
2018-09-04T16:42:05.653Z,22.40
2018-09-04T16:44:32.993Z,22.50
2018-09-04T16:47:00.161Z,22.50
2018-09-04T16:49:28.277Z,22.50
2018-09-04T16:51:57.229Z,22.50
2018-09-04T16:54:25.217Z,22.60
2018-09-04T16:56:52.521Z,22.50
2018-09-04T16:59:19.805Z,22.50
2018-09-04T17:01:46.934Z,22.50
2018-09-04T17:04:14.181Z,22.40
2018-09-04T17:06:41.738Z,22.30
2018-09-04T17:09:08.866Z,22.20
2018-09-04T17:11:36.446Z,22.00
2018-09-04T17:14:03.682Z,21.90
2018-09-04T17:16:30.814Z,21.80
2018-09-04T17:18:57.946Z,21.80
2018-09-04T17:21:25.268Z,21.90
2018-09-04T17:23:52.378Z,21.80
2018-09-04T17:26:19.496Z,21.70
2018-09-04T17:28:46.830Z,21.60
2018-09-04T17:31:13.934Z,21.50
2018-09-04T17:33:41.041Z,21.40
2018-09-04T17:36:08.365Z,21.30
2018-09-04T17:38:35.458Z,21.20
2018-09-04T17:41:02.577Z,21.10
2018-09-04T17:43:29.877Z,21.00
2018-09-04T17:45:57.041Z,20.80
2018-09-04T17:48:24.289Z,20.70
2018-09-04T17:50:51.400Z,20.50
2018-09-04T17:53:18.493Z,20.30
2018-09-04T17:55:45.826Z,20.20
2018-09-04T17:58:12.930Z,20.00
2018-09-04T18:00:40.120Z,19.80
2018-09-04T18:03:07.634Z,19.70
2018-09-04T18:05:34.745Z,19.60
2018-09-04T18:08:02.342Z,19.50
2018-09-04T18:10:29.969Z,19.40
2018-09-04T18:12:57.062Z,19.20
2018-09-04T18:15:24.169Z,19.10
2018-09-04T18:17:51.557Z,19.00
2018-09-04T18:20:18.656Z,18.90
2018-09-04T18:22:45.805Z,18.80
2018-09-04T18:25:13.364Z,18.80
2018-09-04T18:27:40.465Z,18.70
2018-09-04T18:30:07.629Z,18.60
2018-09-04T18:32:34.833Z,18.60
2018-09-04T18:35:01.952Z,18.50
2018-09-04T18:37:29.285Z,18.40
2018-09-04T18:39:56.521Z,18.40
2018-09-04T18:42:23.621Z,18.30
2018-09-04T18:44:51.021Z,18.30
2018-09-04T18:47:18.129Z,18.30
2018-09-04T18:49:45.350Z,18.30
2018-09-04T18:52:12.753Z,18.30
2018-09-04T18:54:39.873Z,18.30
2018-09-04T18:57:07.013Z,18.20
2018-09-04T18:59:34.505Z,18.20
2018-09-04T19:02:01.565Z,18.20
2018-09-04T19:04:28.656Z,18.20
2018-09-04T19:06:56.389Z,18.10
2018-09-04T19:09:23.460Z,18.10
2018-09-04T19:11:50.557Z,18.00
2018-09-04T19:14:17.972Z,18.00
2018-09-04T19:16:45.018Z,17.90
2018-09-04T19:19:12.168Z,17.90
2018-09-04T19:21:39.536Z,17.90
2018-09-04T19:24:06.693Z,17.90
2018-09-04T19:26:33.870Z,17.90
2018-09-04T19:29:01.690Z,17.90
2018-09-04T19:31:28.793Z,17.90
2018-09-04T19:33:56.050Z,17.90
2018-09-04T19:36:23.329Z,17.90
2018-09-04T19:38:50.442Z,18.00
2018-09-04T19:41:17.693Z,18.00
2018-09-04T19:43:44.805Z,18.10
2018-09-04T19:46:11.905Z,18.10
2018-09-04T19:48:39.690Z,18.00
2018-09-04T19:51:06.797Z,18.10
2018-09-04T19:53:34.001Z,18.00
2018-09-04T19:56:01.937Z,18.00
2018-09-04T19:58:29.076Z,18.00
2018-09-04T20:00:56.256Z,18.00
2018-09-04T20:03:23.769Z,18.00
2018-09-04T20:05:50.870Z,17.90
2018-09-04T20:08:18.001Z,17.90
2018-09-04T20:10:45.481Z,17.80
2018-09-04T20:13:12.624Z,17.70
2018-09-04T20:15:39.707Z,17.60
2018-09-04T20:18:07.787Z,17.60
2018-09-04T20:20:34.981Z,17.50
2018-09-04T20:23:02.091Z,17.40
2018-09-04T20:25:29.777Z,17.30
2018-09-04T20:27:56.897Z,17.20
2018-09-04T20:30:24.002Z,17.20
2018-09-04T20:32:51.577Z,17.10
2018-09-04T20:35:18.817Z,17.10
2018-09-04T20:37:46.030Z,17.10
2018-09-04T20:40:13.649Z,17.20
2018-09-04T20:42:40.830Z,17.30
2018-09-04T20:45:07.994Z,17.30
2018-09-04T20:47:35.497Z,17.40
2018-09-04T20:50:02.705Z,17.50
2018-09-04T20:52:29.917Z,17.50
2018-09-04T20:54:57.057Z,17.60
2018-09-04T20:57:28.933Z,17.70
2018-09-04T21:00:10.865Z,17.80
2018-09-04T21:02:49.785Z,17.90
2018-09-04T21:05:28.918Z,18.00
2018-09-04T21:08:10.665Z,18.10
2018-09-04T21:10:37.902Z,18.20
2018-09-04T21:13:31.330Z,18.20
2018-09-04T21:15:58.591Z,18.20
2018-09-04T21:18:25.785Z,18.20
2018-09-04T21:20:52.935Z,18.30
2018-09-04T21:23:20.195Z,18.30
2018-09-04T21:25:47.475Z,18.30
2018-09-04T21:28:14.710Z,18.30
2018-09-04T21:30:42.032Z,18.30
2018-09-04T21:33:09.239Z,18.40
2018-09-04T21:35:36.523Z,18.40
2018-09-04T21:38:03.826Z,18.40
2018-09-04T21:40:31.011Z,18.50
2018-09-04T21:42:58.182Z,18.50
2018-09-04T21:45:25.343Z,18.40
2018-09-04T21:47:52.525Z,18.40
2018-09-04T21:50:19.750Z,18.40
2018-09-04T21:52:47.015Z,18.30
2018-09-04T21:55:14.173Z,18.20
2018-09-04T21:57:41.527Z,18.10
2018-09-04T22:00:09.227Z,18.00
2018-09-04T22:02:36.635Z,17.80
2018-09-04T22:05:04.024Z,17.70
2018-09-04T22:07:31.248Z,17.60
2018-09-04T22:09:58.408Z,17.50
2018-09-04T22:12:25.634Z,17.40
2018-09-04T22:14:52.894Z,17.40
2018-09-04T22:17:20.254Z,17.30
2018-09-04T22:19:47.436Z,17.30
2018-09-04T22:22:14.670Z,17.20
2018-09-04T22:24:47.333Z,17.20
2018-09-04T22:27:14.535Z,17.10
2018-09-04T22:29:42.134Z,17.10
2018-09-04T22:32:09.813Z,17.00
2018-09-04T22:34:37.018Z,16.90
2018-09-04T22:37:04.238Z,16.90
2018-09-04T22:39:31.511Z,17.00
2018-09-04T22:41:58.698Z,16.90
2018-09-04T22:44:25.879Z,16.80
2018-09-04T22:46:53.044Z,16.80
2018-09-04T22:49:20.242Z,16.70
2018-09-04T22:51:47.435Z,16.60
2018-09-04T22:54:14.649Z,16.50
2018-09-04T22:56:41.832Z,16.40
2018-09-04T22:59:09.023Z,16.40
2018-09-04T23:01:36.235Z,16.30
2018-09-04T23:04:03.414Z,16.30
2018-09-04T23:06:30.607Z,16.30
2018-09-04T23:08:57.794Z,16.20
2018-09-04T23:11:25.149Z,16.20
2018-09-04T23:13:52.327Z,16.20
2018-09-04T23:16:19.519Z,16.20
2018-09-04T23:18:46.671Z,16.30
2018-09-04T23:21:13.877Z,16.30
2018-09-04T23:23:41.059Z,16.20
2018-09-04T23:26:08.202Z,16.30
2018-09-04T23:28:35.343Z,16.20
2018-09-04T23:31:02.507Z,16.20
2018-09-04T23:33:31.051Z,16.20
2018-09-04T23:36:03.883Z,16.20
2018-09-04T23:38:31.034Z,16.20
2018-09-04T23:40:58.183Z,16.30
2018-09-04T23:43:25.348Z,16.20
2018-09-04T23:45:52.535Z,16.20
2018-09-04T23:48:19.732Z,16.10
2018-09-04T23:50:46.932Z,16.10
2018-09-04T23:53:14.091Z,16.10
2018-09-04T23:55:41.238Z,16.10
2018-09-04T23:58:08.386Z,16.00
